Greenbrier Valley Airport
KLWB : now visible

Airfield :











YOU CAN JOIN US ON...

 
LOGIN :

Register | Disclaimer

   EN    FR    IT 

 









Legend :    VFR   Marginal VFR   IFR   Intensive IFR   Very Intensive IFR
Visi :
Ceiling :
>= 8 km
>= 3000ft
5 to 8 km
1000 to 3000 ft
1500m to 5 km
500 to 1000 ft
800 to 1500m
200 to 500 ft
< 800m
< 200 ft
Symbols :   Thunderstorms  Fog  Heavy snow  Heavy precipitations  Wind > 20 kt







- Airport Elevation : 2302 ft


KLWB - Greenbrier Valley

CURRENT METAR :
  • 211615Z AUTO 00000KT 10SM OVC023 08/03 A3007 RMK AO2 T00820029

EXPIRED METARs :
  • 211555Z AUTO 00000KT 10SM BKN023 OVC028 08/03 A3007 RMK AO2 T00800030
  • 211535Z AUTO 00000KT 10SM OVC021 07/03 A3007 RMK AO2 T00740030
  • 211515Z AUTO 27004KT 10SM OVC021 07/03 A3007 RMK AO2 T00700026
  • 211455Z AUTO 27006KT 10SM SCT017 OVC023 07/03 A3007 RMK AO2 T00690030
  • 211435Z AUTO 27005KT 10SM OVC025 07/03 A3006 RMK AO2 T00660030
  • 211415Z AUTO 27005KT 10SM SCT017 OVC025 06/03 A3005 RMK AO2 T00630032
  • 211355Z AUTO 29004KT 10SM BKN017 OVC022 06/03 A3005 RMK AO2 T00600032
  • 211335Z AUTO 28004KT 10SM OVC020 06/03 A3004 RMK AO2 T00600025

TAF KLWB
Valid from the 21 at 15:00 until the 22 at 12:00 UTC


211454Z 2115/2212 29004KT P6SM OVC022
FM211700 33005KT P6SM BKN040
FM220000 31005KT P6SM SCT035
FM220800 VRB03KT P6SM SCT020
KZDC FIR / North America



MET'MAP, your aeronautical weather chart ! - Copyright ORBIFLY December 2007 - Disclaimer

ORBIFLY MET'MAP TEAM :

Programming & Development : Alexandra Zaïnal
Concept & Development : Baudouin d'Aumeries
Co-Development & Prog : Marc-Olivier Méhu
Technical & hardware support : Manuel Goepfert

Contact : metmap@orbifly.com




SOURCES & CREDITS :

   NOAA       Earth
Advisory